x

Long Island - 30 Nm South Of Islip, Ny (44025) Wave Buoy

7:50pm - Sat 4th Jul 2015 All times are EDT. -4 hours from GMT.

  • Sig Wave height 2.6ft
  • Swell Direction
  • Peak Period 8s
  • Average Period 5s
  • Wind
    7mph, 9mph gusts
  • Sea Temp 69°f
  • Air Temp 69°f
  • Sea Pressure 1014.3mb
  • Long Island - 30 Nm South Of Islip, Ny
  • Long Island - 30 Nm South Of Islip, Ny

More Historic Weather Station data

Upgrade to MSW Pro to gain access to the past 30 days of data for over 8000 Wavebouys and Weather Stations around the globe.

Join Pro

Comparision Forecast

View Surf forecast
   
Sat 07/04 7:50pm 2.5ft 8s 5s 7 9 mph 1014.3mb 69f 69f
6:50pm 2.5ft 8s 5s 9 11 mph 1013.6mb 69f 69f
5:50pm 2.5ft 8s 5s 11 13 mph 1013.2mb 69f 69f
4:50pm 3ft 8s 5s 11 13 mph 1012.9mb 69f 69f
3:50pm 2.5ft 8s 5s 13 16 mph 1012.7mb 69f 69f
2:50pm 2.5ft 8s 5s 13 16 mph 1013.3mb 69f 69f
1:50pm 3ft 7s 5s 13 16 mph 1013.3mb 69f 68f
12:50pm 2.5ft 8s 5s 13 16 mph 1013.1mb 69f 68f
11:50am 2.5ft 8s 5s 11 13 mph 1012.8mb 69f 69f
10:50am 3ft 8s 6s 11 13 mph 1012.8mb 68f 69f
9:50am 3ft 7s 6s 11 13 mph 1013.2mb 68f 69f
8:50am 3ft 8s 6s 9 11 mph 1013.3mb 68f 69f
7:50am 3.5ft 8s 7s 9 11 mph 1013.6mb 68f 69f
6:50am 3ft 8s 7s 11 13 mph 1013.5mb 68f 69f
5:50am 3ft 8s 7s 11
mph
1013.7mb 68f 69f
4:50am 3ft 8s 7s 7 9 mph 1014.3mb 68f 69f
3:50am 3ft 8s 7s 4
mph
1014.5mb 68f 69f
2:50am 3ft 8s 7s 4 7 mph 1014.6mb 68f 69f
1:50am 3ft 8s 7s 4 7 mph 1014.8mb 68f 69f
12:50am 3ft 8s 7s 4 7 mph 1015.3mb 68f 69f
Fri 07/03 11:50pm 3ft 8s 7s 4
mph
1015.4mb 69f 69f
10:50pm 3ft 8s 7s 7
mph
1015.3mb 69f 69f
9:50pm 3ft 8s 7s 7
mph
1015.3mb 69f 70f
8:50pm 3ft 8s 7s 7 9 mph 1014.6mb 69f 70f
7:50pm 3.5ft 8s 7s 9
mph
1014.6mb 70f 70f
6:50pm 3.5ft 8s 7s 7 9 mph 1014.6mb 70f 71f
5:50pm 3ft 8s 7s 7
mph
1014.6mb 70f 70f
4:50pm 3ft 8s 7s 4 7 mph 1014.9mb 71f 70f
3:50pm 2.5ft 8s 7s 4 7 mph 1015.4mb 71f 70f
2:50pm 2.5ft 8s 6s 4
mph
1015.3mb 71f 70f
1:50pm 2.5ft 8s 6s  -  2 mph 1015.4mb 71f 70f
12:50pm 2.5ft 8s 6s  -  2 mph 1015.6mb 69f 68f
11:50am 2.5ft 8s 5s 4 7 mph 1015.5mb 68f 67f
10:50am 2.5ft 8s 5s 9
mph
1015mb 67f 67f
9:50am 2.5ft 7s 5s 11 13 mph 1014.3mb 67f 67f
8:50am 2.5ft 8s 6s 9 11 mph 1014.2mb 67f 67f
7:50am 2.5ft 8s 6s 9 11 mph 1013.7mb 67f 67f
6:50am 2.5ft 7s 6s 11 13 mph 1013.3mb 67f 68f
5:50am 2.5ft 8s 6s 9 11 mph 1012.7mb 67f 68f
4:50am 2.5ft 7s 6s 11 13 mph 1011.8mb 67f 67f
3:50am 2.5ft 8s 7s 7 9 mph 1011.4mb 67f 68f
2:50am 2.5ft 8s 7s 9 11 mph 1011.6mb 67f 67f
1:50am 2.5ft 8s 6s 4 7 mph 1011.6mb 67f 67f
12:50am 2.5ft 8s 7s 4
mph
1011.7mb 67f 67f
Thu 07/02 11:50pm 2.5ft 8s 6s 9 11 mph 1011.5mb 67f 66f
10:50pm 2.5ft 8s 6s 7
mph
1011.3mb 68f 67f
9:50pm 2.5ft 8s 6s 4 7 mph 1011.2mb 67f 67f
8:50pm 3ft 8s 6s 2 4 mph 1010.9mb 67f 67f
7:50pm 3.5ft 8s 6s 2 4 mph 1010.5mb 67f 68f
6:50pm 3.5ft 8s 6s 9
mph
1010.4mb 68f 68f
5:50pm 3ft 8s 6s 11
mph
1010.7mb 68f 67f
4:50pm 3.5ft 8s 6s 7
mph
1011.7mb 68f 65f
3:50pm 3.5ft 8s 6s 2 4 mph 1012.3mb 67f 65f
2:50pm 3.5ft 9s 6s 2
mph
1012.7mb 68f 67f
1:50pm 3.5ft 8s 6s 2 4 mph 1012.9mb 68f 68f
12:50pm 3.5ft 8s 6s  -  2 mph 1012.6mb 68f 69f
11:50am 3.5ft 7s 6s 4
mph
1012.4mb 68f 69f
10:50am 4ft 8s 6s 4
mph
1012.6mb 69f 70f
9:50am 3.5ft 7s 6s 2
mph
1012.5mb 68f 70f
8:50am 4ft 7s 6s  -  2 mph 1012.5mb 67f 69f
7:50am 4.5ft 8s 6s  -  2 mph 1012.1mb 67f 69f
6:50am 4ft 7s 6s 2 4 mph 1011.7mb 67f 67f
5:50am 4.5ft 8s 6s 4
mph
1011.4mb 66f 68f
4:50am 4.5ft 8s 6s  -  2 mph 1011.1mb 66f 68f
3:50am 4ft 8s 6s 9
mph
1011mb 67f 70f
2:50am 4ft 8s 6s 11
mph
1011.2mb 67f 70f
1:50am 4ft 7s 6s 9 11 mph 1011.4mb 67f 70f
12:50am 4.5ft 8s 6s 9 11 mph 1011.4mb 67f 70f
Wed 07/01 11:50pm 4.5ft 8s 6s 9
mph
1011.3mb 67f 70f
10:50pm 4ft 8s 5s 9 11 mph 1011mb 67f 70f
9:50pm 4.5ft 7s 5s 9 11 mph 1010.5mb 67f 69f
8:50pm 4.5ft 6s 5s 16 20 mph 1009.3mb 67f 71f
7:50pm 4.5ft 6s 5s 16 18 mph 1008.7mb 67f 70f
6:50pm 4.5ft 7s 5s 13 16 mph 1008.4mb 67f 70f
5:50pm 4ft 6s 5s 16 18 mph 1008.2mb 67f 70f
4:50pm 3.5ft 6s 5s 16 18 mph 1008.1mb 67f 70f
3:50pm 3.5ft 7s 5s 13 16 mph 1008.3mb 67f 70f
2:50pm 3.5ft 6s 5s 13 16 mph 1008.8mb 67f 70f
1:50pm 3.5ft 7s 5s 13 16 mph 1009.1mb 67f 69f
12:50pm 3.5ft 8s 5s 16 18 mph 1009.3mb 67f 69f
11:50am 3.5ft 5s 5s 16 18 mph 1009.6mb 66f 69f
10:50am 4ft 8s 5s 16 20 mph 1009.5mb 66f 69f
9:50am 3.5ft 8s 5s 13 16 mph 1009.2mb 65f 69f
8:50am 4ft 8s 5s 11
mph
1009.3mb 65f 68f
7:50am 4ft 5s 5s 9 11 mph 1008.7mb 66f 67f
6:50am 4ft 5s 5s 7 9 mph 1008.4mb 66f 67f
5:50am 4.5ft 4s 4s 16 18 mph 1008.2mb 66f 67f
4:50am 3.5ft 7s 5s 13 16 mph 1007.2mb 66f 70f
3:50am 3ft 7s 5s 13 16 mph 1008.4mb 66f 70f
2:50am 3.5ft 8s 5s 16 18 mph 1009mb 66f 71f
1:50am 3.5ft 4s 4s 18 22 mph 1009.8mb 66f 70f